Time;durP1;ratioP1;P1;durP2;ratioP2;P2;SDS_P1;SDS_P2;PMS_P1;PMS_P2;Temp;Humidity;BMP_temperature;BMP_pressure;BME280_temperature;BME280_humidity;BME280_pressure;Samples;Min_cycle;Max_cycle;Signal;HPM_P1;HPM_P2
2023/11/01 00:01:18;;;;;;;139.90;127.72;;;;;;;;;;5044552;28;25066;-60
2023/11/01 00:03:44;;;;;;;138.38;125.97;;;;;;;;;;5044901;28;25066;-60
2023/11/01 00:06:10;;;;;;;137.88;126.60;;;;;;;;;;5045268;28;25047;-60
2023/11/01 00:08:36;;;;;;;137.10;125.47;;;;;;;;;;5043983;28;25090;-60
2023/11/01 00:11:02;;;;;;;134.50;122.95;;;;;;;;;;5042771;28;25067;-61
2023/11/01 00:13:28;;;;;;;130.43;118.85;;;;;;;;;;5044430;28;25086;-60
2023/11/01 00:15:54;;;;;;;135.88;124.00;;;;;;;;;;5039033;28;25110;-61
2023/11/01 00:18:20;;;;;;;133.98;122.70;;;;;;;;;;5043945;28;25062;-61
2023/11/01 00:20:46;;;;;;;133.25;121.88;;;;;;;;;;5040367;28;25065;-60
2023/11/01 00:23:12;;;;;;;139.35;127.55;;;;;;;;;;5042805;28;25079;-60
2023/11/01 00:25:38;;;;;;;135.43;124.03;;;;;;;;;;5040524;28;25049;-60
2023/11/01 00:28:04;;;;;;;136.50;123.97;;;;;;;;;;5043870;28;25066;-60
2023/11/01 00:30:30;;;;;;;134.07;122.20;;;;;;;;;;5040335;28;25307;-60
2023/11/01 00:32:56;;;;;;;137.55;125.68;;;;;;;;;;5045346;28;25059;-61
2023/11/01 00:35:22;;;;;;;136.85;125.18;;;;;;;;;;5046319;28;25074;-61
2023/11/01 00:37:48;;;;;;;144.80;133.00;;;;;;;;;;5049249;28;25102;-61
2023/11/01 00:40:14;;;;;;;140.43;128.20;;;;;;;;;;5040146;28;25070;-60
2023/11/01 00:42:40;;;;;;;138.90;126.90;;;;;;;;;;5023276;28;25052;-61
2023/11/01 00:45:07;;;;;;;140.10;128.32;;;;;;;;;;5021909;28;25172;-60
2023/11/01 00:47:33;;;;;;;140.70;128.15;;;;;;;;;;5014686;28;25070;-60
2023/11/01 00:49:59;;;;;;;141.85;128.82;;;;;;;;;;5017746;28;25085;-60
2023/11/01 00:52:25;;;;;;;141.48;129.07;;;;;;;;;;5023554;28;25067;-60
2023/11/01 00:54:51;;;;;;;145.60;132.30;;;;;;;;;;5021711;28;25058;-60
2023/11/01 00:57:17;;;;;;;149.30;135.35;;;;;;;;;;5017261;28;25139;-60
2023/11/01 00:59:43;;;;;;;146.88;133.45;;;;;;;;;;5016791;28;25138;-62
2023/11/01 01:02:08;;;;;;;146.65;132.75;;;;;;;;;;5016752;28;25143;-60
2023/11/01 01:04:34;;;;;;;149.18;135.75;;;;;;;;;;5020656;28;25060;-61
2023/11/01 01:07:00;;;;;;;150.70;136.55;;;;;;;;;;5030011;28;25109;-61
2023/11/01 01:09:26;;;;;;;146.57;133.63;;;;;;;;;;5037459;28;25149;-60
2023/11/01 01:11:52;;;;;;;144.63;131.80;;;;;;;;;;5046812;28;25061;-60
2023/11/01 01:14:19;;;;;;;149.32;136.07;;;;;;;;;;5031060;28;25145;-60
2023/11/01 01:16:46;;;;;;;153.93;140.18;;;;;;;;;;5032532;28;25147;-61
2023/11/01 01:19:12;;;;;;;154.70;141.00;;;;;;;;;;5047509;28;25066;-61
2023/11/01 01:21:38;;;;;;;157.70;143.32;;;;;;;;;;5037206;28;25065;-60
2023/11/01 01:24:04;;;;;;;156.05;142.18;;;;;;;;;;5041157;28;25087;-60
2023/11/01 01:26:31;;;;;;;156.00;142.68;;;;;;;;;;5046869;28;25062;-60
2023/11/01 01:28:57;;;;;;;159.68;145.60;;;;;;;;;;5048988;28;25091;-64
2023/11/01 01:31:23;;;;;;;159.25;145.30;;;;;;;;;;5047799;28;25072;-61
2023/11/01 01:33:49;;;;;;;159.55;144.68;;;;;;;;;;5048427;28;25080;-61
2023/11/01 01:36:15;;;;;;;156.98;142.98;;;;;;;;;;5047828;28;25079;-61
2023/11/01 01:38:41;;;;;;;147.30;133.95;;;;;;;;;;5046588;28;25095;-61
2023/11/01 01:41:08;;;;;;;154.80;141.05;;;;;;;;;;5044164;28;25137;-61
2023/11/01 01:43:34;;;;;;;156.55;142.70;;;;;;;;;;5045428;28;25084;-61
2023/11/01 01:46:08;;;;;;;154.93;141.27;;;;;;;;;;5038970;28;25065;-62
2023/11/01 01:48:35;;;;;;;157.40;143.60;;;;;;;;;;5038502;28;25067;-61
2023/11/01 01:51:01;;;;;;;151.38;138.40;;;;;;;;;;5041749;28;25097;-61
2023/11/01 01:53:27;;;;;;;151.13;138.15;;;;;;;;;;5043688;28;25152;-61
2023/11/01 01:55:53;;;;;;;155.30;141.55;;;;;;;;;;5043016;28;25076;-61
2023/11/01 01:58:20;;;;;;;155.68;142.15;;;;;;;;;;5047010;28;25112;-60
2023/11/01 02:00:46;;;;;;;161.77;147.38;;;;;;;;;;5040728;28;25092;-61
2023/11/01 02:03:12;;;;;;;156.48;143.07;;;;;;;;;;5042096;28;25174;-60
2023/11/01 02:05:38;;;;;;;165.18;150.93;;;;;;;;;;5034796;28;25057;-60
2023/11/01 02:08:04;;;;;;;155.15;141.68;;;;;;;;;;5045679;28;25130;-59
2023/11/01 02:10:30;;;;;;;157.00;142.60;;;;;;;;;;5037853;28;25064;-59
2023/11/01 02:12:56;;;;;;;163.70;149.82;;;;;;;;;;5038087;28;25054;-60
2023/11/01 02:15:22;;;;;;;172.15;158.00;;;;;;;;;;5037006;28;25170;-60
2023/11/01 02:17:48;;;;;;;155.18;142.07;;;;;;;;;;5038242;28;25092;-60
2023/11/01 02:20:15;;;;;;;173.27;159.00;;;;;;;;;;5038490;28;25057;-60
2023/11/01 02:22:42;;;;;;;179.63;164.48;;;;;;;;;;5041203;28;25065;-60
2023/11/01 02:25:08;;;;;;;190.60;174.13;;;;;;;;;;5045438;28;25097;-60
2023/11/01 02:27:34;;;;;;;193.55;177.63;;;;;;;;;;5045912;28;25048;-60
2023/11/01 02:30:00;;;;;;;205.73;187.85;;;;;;;;;;5041477;28;25053;-61
2023/11/01 02:32:29;;;;;;;194.90;178.20;;;;;;;;;;5044772;28;25051;-59
2023/11/01 02:34:55;;;;;;;195.07;178.30;;;;;;;;;;5046228;28;25073;-60
2023/11/01 02:37:21;;;;;;;189.82;173.38;;;;;;;;;;5043478;28;25072;-60
2023/11/01 02:39:47;;;;;;;182.40;166.45;;;;;;;;;;5044981;28;25064;-60
2023/11/01 02:42:13;;;;;;;182.35;166.80;;;;;;;;;;5042699;28;25042;-61
2023/11/01 02:44:39;;;;;;;186.80;170.82;;;;;;;;;;5043234;28;25139;-61
2023/11/01 02:47:05;;;;;;;187.70;171.35;;;;;;;;;;5047725;28;25077;-61
2023/11/01 02:49:31;;;;;;;180.93;165.15;;;;;;;;;;5042138;28;25066;-61
2023/11/01 02:51:57;;;;;;;181.10;165.60;;;;;;;;;;5038724;28;25075;-61
2023/11/01 02:54:23;;;;;;;185.00;169.00;;;;;;;;;;5045153;28;25079;-60
2023/11/01 02:56:49;;;;;;;184.18;168.30;;;;;;;;;;5039382;28;25106;-59
2023/11/01 02:59:15;;;;;;;185.50;169.52;;;;;;;;;;5046307;28;25125;-59
2023/11/01 03:01:42;;;;;;;178.85;162.18;;;;;;;;;;5044554;28;25081;-60
2023/11/01 03:04:08;;;;;;;185.95;169.50;;;;;;;;;;5044351;28;25073;-61
2023/11/01 03:06:33;;;;;;;179.25;163.23;;;;;;;;;;5045488;28;25049;-60
2023/11/01 03:08:59;;;;;;;184.20;167.85;;;;;;;;;;5045409;28;25083;-61
2023/11/01 03:11:25;;;;;;;183.85;167.80;;;;;;;;;;5044912;28;25136;-60
2023/11/01 03:13:51;;;;;;;174.63;159.02;;;;;;;;;;5039035;28;25104;-60
2023/11/01 03:16:17;;;;;;;186.15;169.25;;;;;;;;;;5041572;28;25097;-61
2023/11/01 03:18:44;;;;;;;185.50;168.35;;;;;;;;;;5038367;28;25112;-61
2023/11/01 03:21:10;;;;;;;179.45;163.38;;;;;;;;;;5046406;28;25084;-66
2023/11/01 03:23:36;;;;;;;185.90;169.43;;;;;;;;;;5038211;28;25087;-61
2023/11/01 03:26:03;;;;;;;182.25;166.18;;;;;;;;;;5044391;28;25064;-60
2023/11/01 03:28:29;;;;;;;191.52;174.35;;;;;;;;;;5042954;28;25064;-61
2023/11/01 03:30:55;;;;;;;194.25;176.98;;;;;;;;;;5044658;28;25074;-61
2023/11/01 03:33:20;;;;;;;185.50;169.13;;;;;;;;;;5044683;28;25072;-61
2023/11/01 03:35:47;;;;;;;178.45;162.65;;;;;;;;;;5037259;28;25065;-61
2023/11/01 03:38:13;;;;;;;199.65;182.20;;;;;;;;;;5045341;28;25135;-61
2023/11/01 03:40:38;;;;;;;185.45;169.18;;;;;;;;;;5036982;28;25072;-61
2023/11/01 03:43:04;;;;;;;183.85;167.60;;;;;;;;;;5032582;28;25145;-61
2023/11/01 03:45:30;;;;;;;183.57;167.65;;;;;;;;;;5038885;28;25086;-61
2023/11/01 03:47:57;;;;;;;183.35;167.38;;;;;;;;;;5031978;28;25074;-61
2023/11/01 03:50:22;;;;;;;187.85;171.32;;;;;;;;;;5036972;28;25057;-61
2023/11/01 03:52:48;;;;;;;187.07;170.90;;;;;;;;;;5043253;28;25138;-61
2023/11/01 03:55:14;;;;;;;181.65;166.07;;;;;;;;;;5041119;28;25149;-61
2023/11/01 03:57:40;;;;;;;193.52;176.93;;;;;;;;;;5040924;28;25102;-60
2023/11/01 04:00:07;;;;;;;191.13;174.68;;;;;;;;;;5042684;28;25050;-61
2023/11/01 04:02:33;;;;;;;187.13;171.20;;;;;;;;;;5044256;28;25132;-60
2023/11/01 04:04:59;;;;;;;185.15;169.27;;;;;;;;;;5036995;28;25136;-61
2023/11/01 04:07:25;;;;;;;195.90;179.43;;;;;;;;;;5036200;28;25154;-62
2023/11/01 04:09:51;;;;;;;196.57;179.20;;;;;;;;;;5038598;28;25134;-61
2023/11/01 04:12:17;;;;;;;208.63;190.02;;;;;;;;;;5039369;28;25063;-61
2023/11/01 04:14:43;;;;;;;204.15;185.73;;;;;;;;;;5039571;28;25108;-62
2023/11/01 04:17:09;;;;;;;215.80;197.48;;;;;;;;;;5040270;28;25047;-61
2023/11/01 04:19:35;;;;;;;215.98;196.85;;;;;;;;;;5046872;28;25055;-61
2023/11/01 04:22:01;;;;;;;217.55;198.13;;;;;;;;;;5038050;28;25151;-61
2023/11/01 04:24:27;;;;;;;224.93;204.70;;;;;;;;;;5047706;28;25070;-61
2023/11/01 04:26:54;;;;;;;226.57;205.98;;;;;;;;;;5042104;28;25059;-60
2023/11/01 04:29:20;;;;;;;224.02;203.75;;;;;;;;;;5047601;28;25069;-61
2023/11/01 04:31:47;;;;;;;219.52;199.63;;;;;;;;;;5047041;28;25157;-59
2023/11/01 04:34:12;;;;;;;217.32;197.55;;;;;;;;;;5048393;28;25068;-60
2023/11/01 04:36:38;;;;;;;229.27;208.60;;;;;;;;;;5049898;28;25116;-62
2023/11/01 04:39:05;;;;;;;222.82;202.85;;;;;;;;;;5055942;28;25059;-61
2023/11/01 04:41:31;;;;;;;223.68;203.20;;;;;;;;;;5050578;28;25154;-61
2023/11/01 04:43:57;;;;;;;230.48;209.80;;;;;;;;;;5048816;28;25070;-60
2023/11/01 04:46:23;;;;;;;232.75;210.73;;;;;;;;;;5051479;28;25070;-61
2023/11/01 04:48:49;;;;;;;236.52;214.60;;;;;;;;;;5055939;28;25143;-61
2023/11/01 04:51:15;;;;;;;232.90;211.38;;;;;;;;;;5048776;28;25077;-61
2023/11/01 04:53:41;;;;;;;240.98;218.70;;;;;;;;;;5047484;28;25071;-60
2023/11/01 04:56:08;;;;;;;235.45;213.75;;;;;;;;;;5069936;28;25066;-61
2023/11/01 04:58:35;;;;;;;240.68;218.75;;;;;;;;;;5046256;28;25108;-60
2023/11/01 05:01:04;;;;;;;238.13;216.00;;;;;;;;;;5052336;28;25080;-61
2023/11/01 05:03:30;;;;;;;232.15;209.57;;;;;;;;;;5047989;28;25118;-61
2023/11/01 05:05:56;;;;;;;225.45;203.80;;;;;;;;;;5046175;28;25104;-61
2023/11/01 05:08:22;;;;;;;232.10;210.48;;;;;;;;;;5043325;28;25081;-60
2023/11/01 05:10:48;;;;;;;227.07;205.48;;;;;;;;;;5047782;28;25067;-61
2023/11/01 05:13:14;;;;;;;226.10;203.10;;;;;;;;;;5052652;28;25052;-61
2023/11/01 05:15:40;;;;;;;227.40;206.52;;;;;;;;;;5051658;28;25076;-61
2023/11/01 05:24:32;;;;;;;234.90;212.75;;;;;;;;;;5045064;28;25052;-60
2023/11/01 05:26:58;;;;;;;231.13;208.88;;;;;;;;;;5046918;28;25067;-60
2023/11/01 05:29:24;;;;;;;225.50;203.93;;;;;;;;;;5047985;28;25083;-62
2023/11/01 05:31:49;;;;;;;218.13;197.23;;;;;;;;;;5042649;28;25093;-60
2023/11/01 05:34:16;;;;;;;218.82;198.25;;;;;;;;;;5048802;28;25074;-60
2023/11/01 05:36:42;;;;;;;214.52;194.50;;;;;;;;;;5051729;28;25060;-60
2023/11/01 05:39:08;;;;;;;215.07;195.00;;;;;;;;;;5046230;28;25144;-59
2023/11/01 05:41:34;;;;;;;218.85;198.23;;;;;;;;;;5063733;28;25050;-60
2023/11/01 05:44:00;;;;;;;220.25;198.50;;;;;;;;;;5045648;28;25055;-61
2023/11/01 05:46:26;;;;;;;213.65;192.50;;;;;;;;;;5048245;28;25066;-60
2023/11/01 05:48:52;;;;;;;220.90;199.52;;;;;;;;;;5043838;28;25143;-61
2023/11/01 05:51:18;;;;;;;209.75;188.38;;;;;;;;;;5048329;28;25073;-60
2023/11/01 05:53:46;;;;;;;213.25;192.32;;;;;;;;;;5044948;28;25048;-60
2023/11/01 05:56:12;;;;;;;218.48;197.05;;;;;;;;;;5047099;28;25158;-61
2023/11/01 05:58:38;;;;;;;212.00;191.35;;;;;;;;;;5036472;28;25072;-60
2023/11/01 06:01:05;;;;;;;215.60;194.50;;;;;;;;;;5017975;28;25061;-60
2023/11/01 06:03:31;;;;;;;212.63;192.18;;;;;;;;;;5014646;28;25087;-60
2023/11/01 06:05:57;;;;;;;196.02;176.50;;;;;;;;;;5022726;28;25098;-61
2023/11/01 06:08:26;;;;;;;200.35;180.75;;;;;;;;;;5021013;28;25136;-62
2023/11/01 06:10:55;;;;;;;224.98;204.50;;;;;;;;;;5020471;28;25051;-60
2023/11/01 06:13:21;;;;;;;210.23;189.02;;;;;;;;;;5015293;28;25146;-60
2023/11/01 06:15:49;;;;;;;199.30;180.50;;;;;;;;;;5020202;28;25140;-60
2023/11/01 06:18:15;;;;;;;204.43;185.38;;;;;;;;;;5022011;28;25064;-60
2023/11/01 06:20:41;;;;;;;203.75;183.75;;;;;;;;;;5025501;28;25112;-59
2023/11/01 06:23:08;;;;;;;197.35;178.95;;;;;;;;;;5024348;28;25102;-59
2023/11/01 06:25:34;;;;;;;196.63;177.20;;;;;;;;;;5031132;28;25063;-60
2023/11/01 06:28:00;;;;;;;196.15;177.88;;;;;;;;;;5043927;28;25082;-60
2023/11/01 06:30:26;;;;;;;192.15;174.13;;;;;;;;;;5033996;28;25061;-60
2023/11/01 06:32:52;;;;;;;195.32;177.30;;;;;;;;;;5037503;28;25160;-61
2023/11/01 06:35:18;;;;;;;192.05;174.23;;;;;;;;;;5039262;28;25084;-61
2023/11/01 06:37:46;;;;;;;204.10;185.40;;;;;;;;;;5040573;28;25061;-61
2023/11/01 06:40:12;;;;;;;200.77;182.80;;;;;;;;;;5042807;28;25066;-60
2023/11/01 06:42:38;;;;;;;186.73;169.32;;;;;;;;;;5040312;28;25161;-60
2023/11/01 06:45:04;;;;;;;191.60;174.15;;;;;;;;;;5037619;28;25068;-59
2023/11/01 06:47:30;;;;;;;186.48;168.95;;;;;;;;;;5038531;28;25070;-61
2023/11/01 06:49:57;;;;;;;181.55;164.30;;;;;;;;;;5039777;28;25059;-59
2023/11/01 06:52:22;;;;;;;183.35;166.85;;;;;;;;;;5041307;28;25108;-60
2023/11/01 06:54:48;;;;;;;182.95;166.38;;;;;;;;;;5045809;28;25072;-60
2023/11/01 06:57:14;;;;;;;179.30;162.05;;;;;;;;;;5035302;28;25055;-60
2023/11/01 06:59:41;;;;;;;175.13;159.10;;;;;;;;;;5038500;28;25095;-61
2023/11/01 07:02:07;;;;;;;177.52;161.30;;;;;;;;;;5040465;28;25088;-60
2023/11/01 07:04:34;;;;;;;167.25;151.43;;;;;;;;;;5040828;28;25135;-60
2023/11/01 07:06:59;;;;;;;169.02;153.23;;;;;;;;;;5045632;28;25062;-61
2023/11/01 07:09:25;;;;;;;163.35;147.95;;;;;;;;;;5039333;28;25132;-60
2023/11/01 07:11:51;;;;;;;167.23;151.02;;;;;;;;;;5039639;28;25094;-60
2023/11/01 07:14:17;;;;;;;167.05;151.30;;;;;;;;;;5039614;28;25086;-61
2023/11/01 07:16:45;;;;;;;169.50;152.98;;;;;;;;;;5031168;28;25077;-59
2023/11/01 07:19:11;;;;;;;167.80;152.10;;;;;;;;;;5021478;28;25092;-61
2023/11/01 07:21:39;;;;;;;172.20;157.10;;;;;;;;;;5018016;28;25091;-60
2023/11/01 07:24:05;;;;;;;165.80;150.30;;;;;;;;;;5013912;28;25064;-60
2023/11/01 07:26:31;;;;;;;159.80;145.10;;;;;;;;;;5025768;28;25085;-60
2023/11/01 07:28:59;;;;;;;167.23;151.70;;;;;;;;;;5013870;28;25087;-61
2023/11/01 07:31:25;;;;;;;165.02;149.90;;;;;;;;;;5009385;28;25086;-61
2023/11/01 07:33:51;;;;;;;164.60;149.70;;;;;;;;;;5014193;28;25154;-60
2023/11/01 07:36:18;;;;;;;162.43;147.93;;;;;;;;;;5015179;28;25144;-61
2023/11/01 07:38:44;;;;;;;161.45;146.48;;;;;;;;;;5017305;28;25087;-61
2023/11/01 07:41:10;;;;;;;164.88;149.77;;;;;;;;;;5013623;28;25062;-60
2023/11/01 07:43:37;;;;;;;160.35;145.55;;;;;;;;;;5012276;28;25122;-60
2023/11/01 07:46:03;;;;;;;159.30;144.85;;;;;;;;;;5018756;28;25098;-60
2023/11/01 07:48:29;;;;;;;151.50;137.98;;;;;;;;;;5011158;28;25056;-60
2023/11/01 07:50:55;;;;;;;153.38;139.90;;;;;;;;;;5016038;28;25106;-58
2023/11/01 07:53:21;;;;;;;154.23;140.57;;;;;;;;;;5005935;28;25059;-61
2023/11/01 07:55:48;;;;;;;153.98;139.32;;;;;;;;;;5009924;28;25058;-60
2023/11/01 07:58:14;;;;;;;150.07;136.07;;;;;;;;;;5017061;28;25107;-61
2023/11/01 08:00:40;;;;;;;147.13;132.95;;;;;;;;;;5014573;28;25094;-61
2023/11/01 08:03:06;;;;;;;152.52;138.70;;;;;;;;;;5017046;28;25045;-62
2023/11/01 08:05:32;;;;;;;156.55;142.23;;;;;;;;;;5023018;28;25075;-62
2023/11/01 08:07:58;;;;;;;158.50;143.50;;;;;;;;;;5019521;28;25152;-60
2023/11/01 08:10:24;;;;;;;161.00;146.68;;;;;;;;;;5018965;28;25100;-60
2023/11/01 08:12:50;;;;;;;155.73;141.55;;;;;;;;;;5020550;28;25065;-61
2023/11/01 08:15:16;;;;;;;149.27;135.98;;;;;;;;;;5011708;28;25057;-62
2023/11/01 08:17:42;;;;;;;148.30;135.55;;;;;;;;;;5011871;28;25073;-61
2023/11/01 08:20:08;;;;;;;153.45;139.85;;;;;;;;;;5013198;28;25057;-60
2023/11/01 08:22:35;;;;;;;146.43;132.93;;;;;;;;;;5013672;28;25060;-60
2023/11/01 08:25:01;;;;;;;144.30;130.85;;;;;;;;;;5017938;28;25123;-61
2023/11/01 08:27:28;;;;;;;151.57;138.43;;;;;;;;;;5016332;28;25064;-61
2023/11/01 08:29:54;;;;;;;152.40;139.30;;;;;;;;;;5014319;28;25065;-61
2023/11/01 08:32:20;;;;;;;152.50;138.98;;;;;;;;;;5018702;28;25138;-60
2023/11/01 08:34:46;;;;;;;152.85;139.57;;;;;;;;;;5010212;28;25155;-60
2023/11/01 08:37:12;;;;;;;145.63;132.80;;;;;;;;;;5016095;28;25141;-60
2023/11/01 08:39:38;;;;;;;147.38;134.40;;;;;;;;;;5014059;28;25112;-61
2023/11/01 08:42:04;;;;;;;145.95;132.25;;;;;;;;;;5013477;28;25046;-60
2023/11/01 08:44:30;;;;;;;143.23;130.32;;;;;;;;;;5009829;28;25050;-60
2023/11/01 08:46:56;;;;;;;137.70;124.95;;;;;;;;;;5012725;28;25105;-61
2023/11/01 08:49:22;;;;;;;139.80;127.88;;;;;;;;;;5014603;28;25097;-60
2023/11/01 08:51:48;;;;;;;132.45;120.90;;;;;;;;;;5012564;28;25161;-61
2023/11/01 08:54:15;;;;;;;132.57;120.68;;;;;;;;;;5021060;28;25070;-61
2023/11/01 08:56:42;;;;;;;139.02;126.50;;;;;;;;;;5020380;28;25095;-61
2023/11/01 08:59:07;;;;;;;136.30;124.38;;;;;;;;;;5021592;28;25078;-62
2023/11/01 09:01:33;;;;;;;138.77;127.10;;;;;;;;;;5023656;28;25056;-60
2023/11/01 09:04:00;;;;;;;146.85;133.57;;;;;;;;;;5019000;28;25084;-60
2023/11/01 09:06:27;;;;;;;141.25;128.82;;;;;;;;;;5021068;28;25129;-62
2023/11/01 09:08:53;;;;;;;148.20;135.50;;;;;;;;;;5012926;28;25152;-60
2023/11/01 09:11:23;;;;;;;139.35;127.10;;;;;;;;;;5019739;28;25070;-60
2023/11/01 09:13:49;;;;;;;142.43;130.20;;;;;;;;;;5018431;28;25095;-60
2023/11/01 09:16:15;;;;;;;136.32;124.30;;;;;;;;;;5012940;28;25158;-60
2023/11/01 09:18:41;;;;;;;143.05;131.15;;;;;;;;;;5015058;28;25085;-61
2023/11/01 09:21:07;;;;;;;132.90;121.75;;;;;;;;;;5014902;28;25131;-60
2023/11/01 09:23:34;;;;;;;135.10;124.05;;;;;;;;;;5020999;28;25064;-61
2023/11/01 09:26:01;;;;;;;136.90;125.28;;;;;;;;;;5024085;28;25072;-63
2023/11/01 09:28:28;;;;;;;134.02;123.05;;;;;;;;;;5018728;28;25086;-61
2023/11/01 09:30:53;;;;;;;130.93;120.10;;;;;;;;;;5013313;28;25110;-62
2023/11/01 09:33:19;;;;;;;131.43;120.90;;;;;;;;;;5023938;28;25144;-62
2023/11/01 09:35:45;;;;;;;129.40;118.97;;;;;;;;;;5018958;28;25143;-61
2023/11/01 09:38:11;;;;;;;129.65;119.47;;;;;;;;;;5017362;28;25057;-62
2023/11/01 09:40:37;;;;;;;121.47;111.65;;;;;;;;;;5019716;28;25075;-61
2023/11/01 09:43:05;;;;;;;128.77;118.07;;;;;;;;;;5022754;28;25047;-60
2023/11/01 09:45:32;;;;;;;126.28;116.03;;;;;;;;;;5014427;28;25096;-61
2023/11/01 09:47:58;;;;;;;125.63;115.35;;;;;;;;;;5017352;28;25048;-61
2023/11/01 09:50:23;;;;;;;129.18;118.65;;;;;;;;;;5015293;28;25054;-61
2023/11/01 09:52:49;;;;;;;128.38;117.97;;;;;;;;;;5013569;28;25098;-60
2023/11/01 09:55:16;;;;;;;124.68;114.75;;;;;;;;;;5013666;28;25073;-61
2023/11/01 09:57:43;;;;;;;122.72;112.60;;;;;;;;;;5013001;28;25183;-61
2023/11/01 10:00:10;;;;;;;122.78;113.38;;;;;;;;;;5012280;28;25100;-60
2023/11/01 10:02:37;;;;;;;121.18;110.80;;;;;;;;;;5011384;28;25055;-61
2023/11/01 10:05:04;;;;;;;116.97;107.55;;;;;;;;;;5013696;28;25079;-60
2023/11/01 10:07:30;;;;;;;114.38;105.05;;;;;;;;;;5015245;28;25050;-61
2023/11/01 10:09:56;;;;;;;107.88;99.55;;;;;;;;;;5015971;28;25075;-59
2023/11/01 10:12:22;;;;;;;114.25;105.25;;;;;;;;;;5015861;28;25055;-61
2023/11/01 10:14:48;;;;;;;119.15;109.57;;;;;;;;;;5011213;28;25087;-59
2023/11/01 10:17:14;;;;;;;120.72;111.38;;;;;;;;;;5022241;28;25110;-61
2023/11/01 10:19:43;;;;;;;117.30;107.90;;;;;;;;;;5010972;28;25053;-61
2023/11/01 10:22:11;;;;;;;115.57;106.65;;;;;;;;;;5011775;28;25072;-60
2023/11/01 10:24:37;;;;;;;107.85;99.32;;;;;;;;;;5015193;28;25045;-61
2023/11/01 10:27:03;;;;;;;111.45;103.18;;;;;;;;;;5017863;28;25147;-59
2023/11/01 10:29:29;;;;;;;105.43;96.82;;;;;;;;;;5014252;28;25148;-61
2023/11/01 10:31:56;;;;;;;106.20;98.30;;;;;;;;;;5021445;28;25056;-60
2023/11/01 10:34:29;;;;;;;103.28;95.78;;;;;;;;;;5022816;28;25194;-61
2023/11/01 10:36:56;;;;;;;105.13;97.07;;;;;;;;;;5016106;28;25057;-60
2023/11/01 10:39:23;;;;;;;111.05;102.95;;;;;;;;;;5013919;28;25083;-60
2023/11/01 10:41:53;;;;;;;103.55;96.15;;;;;;;;;;5013203;28;25064;-60
2023/11/01 10:44:23;;;;;;;105.97;98.55;;;;;;;;;;5015017;28;25092;-60
2023/11/01 10:46:50;;;;;;;103.18;96.03;;;;;;;;;;5019844;28;25071;-60
2023/11/01 10:49:16;;;;;;;98.72;91.38;;;;;;;;;;5016128;28;25162;-60
2023/11/01 10:51:43;;;;;;;102.00;93.80;;;;;;;;;;5016791;28;25081;-60
2023/11/01 10:54:09;;;;;;;103.10;95.97;;;;;;;;;;5013779;28;25068;-61
2023/11/01 10:56:36;;;;;;;94.72;87.78;;;;;;;;;;5009895;28;25058;-61
2023/11/01 10:59:20;;;;;;;82.43;76.57;;;;;;;;;;5017927;28;25126;-62
2023/11/01 11:01:53;;;;;;;80.32;74.63;;;;;;;;;;5015658;28;25186;-60
2023/11/01 11:04:24;;;;;;;78.13;72.30;;;;;;;;;;5019192;28;25080;-59
2023/11/01 11:07:10;;;;;;;74.20;68.90;;;;;;;;;;5014898;28;25146;-61
2023/11/01 11:09:36;;;;;;;72.40;67.47;;;;;;;;;;5016775;28;25115;-61
2023/11/01 11:12:14;;;;;;;65.50;60.90;;;;;;;;;;5018774;28;25092;-62
2023/11/01 11:14:50;;;;;;;65.57;61.28;;;;;;;;;;5014434;28;25100;-60
2023/11/01 11:17:16;;;;;;;62.08;57.40;;;;;;;;;;5012124;28;25059;-61
2023/11/01 11:20:01;;;;;;;62.65;58.17;;;;;;;;;;5016040;28;25067;-60
2023/11/01 11:22:47;;;;;;;58.40;53.95;;;;;;;;;;5013333;28;25065;-61
2023/11/01 11:25:33;;;;;;;59.90;55.83;;;;;;;;;;5018753;28;25047;-60
2023/11/01 11:28:02;;;;;;;56.08;52.55;;;;;;;;;;5044884;28;25086;-61
2023/11/01 11:31:01;;;;;;;52.38;49.22;;;;;;;;;;5038357;28;25083;-63
2023/11/01 11:33:27;;;;;;;49.63;46.40;;;;;;;;;;5042496;28;24968;-61
2023/11/01 11:36:13;;;;;;;44.03;40.78;;;;;;;;;;5032335;28;25063;-59
2023/11/01 11:38:47;;;;;;;43.90;40.90;;;;;;;;;;5025782;28;25061;-61
2023/11/01 11:41:26;;;;;;;42.72;39.58;;;;;;;;;;5034444;28;25068;-61
2023/11/01 11:43:59;;;;;;;43.80;40.65;;;;;;;;;;5040111;28;25096;-61
2023/11/01 11:46:24;;;;;;;;;;;;;;;;;;5036806;28;25148;-60
2023/11/01 11:48:52;;;;;;;29.27;26.60;;;;;;;;;;5040964;28;24082;-60
2023/11/01 11:51:18;;;;;;;28.23;25.90;;;;;;;;;;5012290;28;25109;-60
2023/11/01 11:53:45;;;;;;;23.83;22.25;;;;;;;;;;5012363;28;25102;-62
2023/11/01 11:56:11;;;;;;;20.10;16.33;;;;;;;;;;5020631;28;25064;-60
2023/11/01 11:58:40;;;;;;;19.35;12.00;;;;;;;;;;5016262;28;25077;-61
2023/11/01 12:01:06;;;;;;;14.10;8.82;;;;;;;;;;5019849;28;25068;-61
2023/11/01 12:03:32;;;;;;;13.98;8.43;;;;;;;;;;5013423;28;25081;-60
2023/11/01 12:06:01;;;;;;;12.82;8.95;;;;;;;;;;5011682;28;25063;-61
2023/11/01 12:08:34;;;;;;;14.90;10.82;;;;;;;;;;5017143;28;25067;-60
2023/11/01 12:11:00;;;;;;;12.77;8.68;;;;;;;;;;5014003;28;25107;-60
2023/11/01 12:13:44;;;;;;;15.40;12.63;;;;;;;;;;5013025;28;25143;-62
2023/11/01 12:16:10;;;;;;;16.17;14.35;;;;;;;;;;5010855;28;25209;-63
2023/11/01 12:18:36;;;;;;;13.88;9.43;;;;;;;;;;5020623;28;25101;-62
2023/11/01 12:21:12;;;;;;;16.75;10.45;;;;;;;;;;5015730;28;25077;-61
2023/11/01 12:23:46;;;;;;;13.88;8.82;;;;;;;;;;5015736;28;25081;-61
2023/11/01 12:26:12;;;;;;;12.55;7.28;;;;;;;;;;5017792;28;25056;-60
2023/11/01 12:28:38;;;;;;;7.90;5.07;;;;;;;;;;5013450;28;25061;-61
2023/11/01 12:31:14;;;;;;;9.15;6.03;;;;;;;;;;5019205;28;25053;-61
2023/11/01 12:33:40;;;;;;;7.07;3.83;;;;;;;;;;5045301;28;25115;-61
2023/11/01 12:36:06;;;;;;;9.57;4.28;;;;;;;;;;5048028;28;25055;-61
2023/11/01 12:38:35;;;;;;;8.35;4.20;;;;;;;;;;5037514;28;25137;-60
2023/11/01 12:41:02;;;;;;;8.25;4.53;;;;;;;;;;5029485;28;25125;-61
2023/11/01 12:43:28;;;;;;;10.55;7.32;;;;;;;;;;5052419;28;25093;-62
2023/11/01 12:45:54;;;;;;;12.25;5.25;;;;;;;;;;5044281;28;25109;-62
2023/11/01 12:48:20;;;;;;;11.35;5.47;;;;;;;;;;5035657;28;25071;-62
2023/11/01 12:50:46;;;;;;;13.13;5.18;;;;;;;;;;5034005;28;25150;-61
2023/11/01 12:53:13;;;;;;;9.77;7.30;;;;;;;;;;5036434;28;25052;-61
2023/11/01 12:55:39;;;;;;;13.65;8.43;;;;;;;;;;5035409;28;25113;-60
2023/11/01 12:58:07;;;;;;;9.95;6.28;;;;;;;;;;5038238;28;25169;-62
2023/11/01 13:00:33;;;;;;;12.35;6.80;;;;;;;;;;5040111;28;25139;-61
2023/11/01 13:03:01;;;;;;;9.25;8.30;;;;;;;;;;5038983;28;25079;-60
2023/11/01 13:05:27;;;;;;;15.27;7.88;;;;;;;;;;5039928;28;25055;-61
2023/11/01 13:07:57;;;;;;;14.18;10.95;;;;;;;;;;5035241;28;25050;-62
2023/11/01 13:10:24;;;;;;;18.45;12.32;;;;;;;;;;5032838;28;24885;-61
2023/11/01 13:12:51;;;;;;;10.93;8.48;;;;;;;;;;5038421;28;25060;-61
2023/11/01 13:15:17;;;;;;;11.77;10.77;;;;;;;;;;5044994;28;25194;-60
2023/11/01 13:17:43;;;;;;;13.68;8.73;;;;;;;;;;5030411;28;25098;-61
2023/11/01 13:20:09;;;;;;;8.35;7.50;;;;;;;;;;5034725;28;25083;-62
2023/11/01 13:22:35;;;;;;;12.80;5.72;;;;;;;;;;5039250;28;25059;-62
2023/11/01 13:25:01;;;;;;;12.57;6.50;;;;;;;;;;5045013;28;25063;-60
2023/11/01 13:27:27;;;;;;;9.23;6.05;;;;;;;;;;5047231;28;25050;-61
2023/11/01 13:29:53;;;;;;;8.10;6.43;;;;;;;;;;5048338;28;25102;-61
2023/11/01 13:32:19;;;;;;;10.27;6.50;;;;;;;;;;5047150;28;25099;-61
2023/11/01 13:34:45;;;;;;;8.13;4.85;;;;;;;;;;5045848;28;25078;-61
2023/11/01 13:37:13;;;;;;;10.18;4.20;;;;;;;;;;5041831;28;25059;-61
2023/11/01 13:39:39;;;;;;;7.60;3.47;;;;;;;;;;5020924;28;25136;-61
2023/11/01 13:42:05;;;;;;;12.65;4.20;;;;;;;;;;5011618;28;25178;-61
2023/11/01 13:44:31;;;;;;;12.55;5.45;;;;;;;;;;5018227;28;25142;-62
2023/11/01 13:46:57;;;;;;;8.25;3.17;;;;;;;;;;5008256;28;25047;-61
2023/11/01 13:49:24;;;;;;;8.55;2.65;;;;;;;;;;5011699;28;25046;-63
2023/11/01 13:51:50;;;;;;;5.47;2.13;;;;;;;;;;5019164;28;25082;-61
2023/11/01 13:54:16;;;;;;;9.10;2.42;;;;;;;;;;5021487;28;25075;-63
2023/11/01 13:56:42;;;;;;;11.80;3.00;;;;;;;;;;5021175;28;25080;-63
2023/11/01 13:59:08;;;;;;;8.52;2.47;;;;;;;;;;5022521;28;25077;-61
2023/11/01 14:01:34;;;;;;;7.03;2.20;;;;;;;;;;5014316;28;25053;-61
2023/11/01 14:04:00;;;;;;;6.40;2.05;;;;;;;;;;5016865;28;25084;-61
2023/11/01 14:06:26;;;;;;;7.75;3.13;;;;;;;;;;5012460;28;25082;-60